sensor_id;sensor_type;location;lat;lon;timestamp;P1;durP1;ratioP1;P2;durP2;ratioP2
2031;SDS011;27625;50.422;7.944;2022-09-09T00:02:35;4.80;;;2.40;;
2031;SDS011;27625;50.422;7.944;2022-09-09T00:05:04;4.17;;;2.10;;
2031;SDS011;27625;50.422;7.944;2022-09-09T00:07:41;4.07;;;2.20;;
2031;SDS011;27625;50.422;7.944;2022-09-09T00:10:13;5.53;;;2.60;;
2031;SDS011;27625;50.422;7.944;2022-09-09T00:12:44;5.37;;;2.77;;
2031;SDS011;27625;50.422;7.944;2022-09-09T00:15:17;5.20;;;2.20;;
2031;SDS011;27625;50.422;7.944;2022-09-09T00:17:48;6.83;;;2.40;;
2031;SDS011;27625;50.422;7.944;2022-09-09T00:20:20;4.30;;;2.30;;
2031;SDS011;27625;50.422;7.944;2022-09-09T00:22:50;3.20;;;2.03;;
2031;SDS011;27625;50.422;7.944;2022-09-09T00:25:22;6.60;;;2.27;;
2031;SDS011;27625;50.422;7.944;2022-09-09T00:27:50;6.30;;;2.13;;
2031;SDS011;27625;50.422;7.944;2022-09-09T00:30:18;3.97;;;2.10;;
2031;SDS011;27625;50.422;7.944;2022-09-09T00:32:49;4.53;;;1.93;;
2031;SDS011;27625;50.422;7.944;2022-09-09T00:35:18;4.87;;;2.10;;
2031;SDS011;27625;50.422;7.944;2022-09-09T00:37:49;5.60;;;2.70;;
2031;SDS011;27625;50.422;7.944;2022-09-09T00:40:21;4.57;;;2.30;;
2031;SDS011;27625;50.422;7.944;2022-09-09T00:42:52;5.03;;;2.23;;
2031;SDS011;27625;50.422;7.944;2022-09-09T00:45:35;4.40;;;2.20;;
2031;SDS011;27625;50.422;7.944;2022-09-09T00:48:13;4.07;;;2.10;;
2031;SDS011;27625;50.422;7.944;2022-09-09T00:50:43;3.73;;;2.20;;
2031;SDS011;27625;50.422;7.944;2022-09-09T00:53:18;3.97;;;2.40;;
2031;SDS011;27625;50.422;7.944;2022-09-09T00:55:49;5.77;;;2.30;;
2031;SDS011;27625;50.422;7.944;2022-09-09T00:58:20;4.47;;;2.10;;
2031;SDS011;27625;50.422;7.944;2022-09-09T01:00:48;5.93;;;2.23;;
2031;SDS011;27625;50.422;7.944;2022-09-09T01:03:22;4.03;;;1.97;;
2031;SDS011;27625;50.422;7.944;2022-09-09T01:06:11;3.90;;;2.40;;
2031;SDS011;27625;50.422;7.944;2022-09-09T01:11:28;4.83;;;2.37;;
2031;SDS011;27625;50.422;7.944;2022-09-09T01:14:01;5.37;;;2.30;;
2031;SDS011;27625;50.422;7.944;2022-09-09T01:16:36;5.17;;;2.17;;
2031;SDS011;27625;50.422;7.944;2022-09-09T01:19:04;5.00;;;2.30;;
2031;SDS011;27625;50.422;7.944;2022-09-09T01:21:38;4.70;;;2.20;;
2031;SDS011;27625;50.422;7.944;2022-09-09T01:24:15;4.70;;;2.10;;
2031;SDS011;27625;50.422;7.944;2022-09-09T01:26:48;3.57;;;2.10;;
2031;SDS011;27625;50.422;7.944;2022-09-09T01:29:17;5.97;;;2.70;;
2031;SDS011;27625;50.422;7.944;2022-09-09T01:31:51;4.43;;;2.20;;
2031;SDS011;27625;50.422;7.944;2022-09-09T01:34:21;5.87;;;2.60;;
2031;SDS011;27625;50.422;7.944;2022-09-09T01:36:49;4.50;;;2.10;;
2031;SDS011;27625;50.422;7.944;2022-09-09T01:39:19;5.33;;;2.47;;
2031;SDS011;27625;50.422;7.944;2022-09-09T01:41:47;3.70;;;2.30;;
2031;SDS011;27625;50.422;7.944;2022-09-09T01:44:14;3.90;;;2.17;;
2031;SDS011;27625;50.422;7.944;2022-09-09T01:46:41;4.30;;;2.30;;
2031;SDS011;27625;50.422;7.944;2022-09-09T01:49:07;3.97;;;2.40;;
2031;SDS011;27625;50.422;7.944;2022-09-09T01:51:35;3.93;;;2.20;;
2031;SDS011;27625;50.422;7.944;2022-09-09T01:54:02;4.60;;;2.03;;
2031;SDS011;27625;50.422;7.944;2022-09-09T01:56:33;3.77;;;2.17;;
2031;SDS011;27625;50.422;7.944;2022-09-09T01:59:09;5.53;;;2.50;;
2031;SDS011;27625;50.422;7.944;2022-09-09T02:01:51;3.60;;;2.17;;
2031;SDS011;27625;50.422;7.944;2022-09-09T02:04:33;3.87;;;2.37;;
2031;SDS011;27625;50.422;7.944;2022-09-09T02:07:03;4.30;;;2.23;;
2031;SDS011;27625;50.422;7.944;2022-09-09T02:09:34;4.30;;;2.00;;
2031;SDS011;27625;50.422;7.944;2022-09-09T02:12:04;5.80;;;2.37;;
2031;SDS011;27625;50.422;7.944;2022-09-09T02:14:36;4.80;;;2.40;;
2031;SDS011;27625;50.422;7.944;2022-09-09T02:17:06;3.97;;;2.73;;
2031;SDS011;27625;50.422;7.944;2022-09-09T02:19:37;5.50;;;2.53;;
2031;SDS011;27625;50.422;7.944;2022-09-09T02:22:06;5.67;;;2.80;;
2031;SDS011;27625;50.422;7.944;2022-09-09T02:24:34;9.90;;;2.77;;
2031;SDS011;27625;50.422;7.944;2022-09-09T02:27:01;5.37;;;2.60;;
2031;SDS011;27625;50.422;7.944;2022-09-09T02:29:31;4.70;;;2.40;;
2031;SDS011;27625;50.422;7.944;2022-09-09T02:32:03;4.03;;;2.27;;
2031;SDS011;27625;50.422;7.944;2022-09-09T02:34:33;4.80;;;2.83;;
2031;SDS011;27625;50.422;7.944;2022-09-09T02:37:03;4.30;;;2.30;;
2031;SDS011;27625;50.422;7.944;2022-09-09T02:39:30;8.67;;;2.60;;
2031;SDS011;27625;50.422;7.944;2022-09-09T02:41:56;6.13;;;2.53;;
2031;SDS011;27625;50.422;7.944;2022-09-09T02:44:23;5.83;;;2.57;;
2031;SDS011;27625;50.422;7.944;2022-09-09T02:46:55;4.33;;;2.63;;
2031;SDS011;27625;50.422;7.944;2022-09-09T02:49:34;3.90;;;2.17;;
2031;SDS011;27625;50.422;7.944;2022-09-09T02:52:07;6.27;;;2.90;;
2031;SDS011;27625;50.422;7.944;2022-09-09T02:54:37;4.80;;;2.10;;
2031;SDS011;27625;50.422;7.944;2022-09-09T02:57:06;4.77;;;2.40;;
2031;SDS011;27625;50.422;7.944;2022-09-09T02:59:34;2.93;;;2.27;;
2031;SDS011;27625;50.422;7.944;2022-09-09T03:02:01;6.27;;;2.67;;
2031;SDS011;27625;50.422;7.944;2022-09-09T03:04:29;5.50;;;2.50;;
2031;SDS011;27625;50.422;7.944;2022-09-09T03:06:56;3.53;;;2.20;;
2031;SDS011;27625;50.422;7.944;2022-09-09T03:09:22;5.23;;;2.47;;
2031;SDS011;27625;50.422;7.944;2022-09-09T03:11:50;5.67;;;2.50;;
2031;SDS011;27625;50.422;7.944;2022-09-09T03:14:21;4.60;;;2.87;;
2031;SDS011;27625;50.422;7.944;2022-09-09T03:16:50;3.83;;;2.30;;
2031;SDS011;27625;50.422;7.944;2022-09-09T03:19:16;4.80;;;2.50;;
2031;SDS011;27625;50.422;7.944;2022-09-09T03:21:45;4.37;;;2.33;;
2031;SDS011;27625;50.422;7.944;2022-09-09T03:24:12;4.30;;;2.27;;
2031;SDS011;27625;50.422;7.944;2022-09-09T03:26:39;4.60;;;2.30;;
2031;SDS011;27625;50.422;7.944;2022-09-09T03:29:05;5.20;;;2.73;;
2031;SDS011;27625;50.422;7.944;2022-09-09T03:31:32;4.50;;;2.47;;
2031;SDS011;27625;50.422;7.944;2022-09-09T03:34:00;4.37;;;2.43;;
2031;SDS011;27625;50.422;7.944;2022-09-09T03:36:27;5.30;;;2.40;;
2031;SDS011;27625;50.422;7.944;2022-09-09T03:38:55;6.70;;;2.33;;
2031;SDS011;27625;50.422;7.944;2022-09-09T03:41:23;6.20;;;2.60;;
2031;SDS011;27625;50.422;7.944;2022-09-09T03:43:49;7.70;;;2.57;;
2031;SDS011;27625;50.422;7.944;2022-09-09T03:46:16;4.40;;;2.40;;
2031;SDS011;27625;50.422;7.944;2022-09-09T03:48:42;7.60;;;2.77;;
2031;SDS011;27625;50.422;7.944;2022-09-09T03:51:09;5.60;;;2.57;;
2031;SDS011;27625;50.422;7.944;2022-09-09T03:53:36;3.87;;;2.27;;
2031;SDS011;27625;50.422;7.944;2022-09-09T03:56:04;7.30;;;3.13;;
2031;SDS011;27625;50.422;7.944;2022-09-09T03:58:32;4.60;;;2.10;;
2031;SDS011;27625;50.422;7.944;2022-09-09T04:01:00;4.30;;;2.27;;
2031;SDS011;27625;50.422;7.944;2022-09-09T04:03:27;7.03;;;2.17;;
2031;SDS011;27625;50.422;7.944;2022-09-09T04:05:54;4.83;;;2.20;;
2031;SDS011;27625;50.422;7.944;2022-09-09T04:08:22;4.60;;;2.10;;
2031;SDS011;27625;50.422;7.944;2022-09-09T04:10:50;4.47;;;2.30;;
2031;SDS011;27625;50.422;7.944;2022-09-09T04:13:18;13.47;;;2.53;;
2031;SDS011;27625;50.422;7.944;2022-09-09T04:15:50;5.50;;;2.20;;
2031;SDS011;27625;50.422;7.944;2022-09-09T04:18:17;3.47;;;1.90;;
2031;SDS011;27625;50.422;7.944;2022-09-09T04:20:45;4.03;;;2.07;;
2031;SDS011;27625;50.422;7.944;2022-09-09T04:23:12;3.27;;;2.03;;
2031;SDS011;27625;50.422;7.944;2022-09-09T04:25:42;3.77;;;1.80;;
2031;SDS011;27625;50.422;7.944;2022-09-09T04:28:10;4.33;;;2.30;;
2031;SDS011;27625;50.422;7.944;2022-09-09T04:30:37;3.57;;;1.80;;
2031;SDS011;27625;50.422;7.944;2022-09-09T04:33:04;5.20;;;2.20;;
2031;SDS011;27625;50.422;7.944;2022-09-09T04:35:31;8.73;;;2.70;;
2031;SDS011;27625;50.422;7.944;2022-09-09T04:37:58;6.93;;;2.37;;
2031;SDS011;27625;50.422;7.944;2022-09-09T04:40:24;6.27;;;2.30;;
2031;SDS011;27625;50.422;7.944;2022-09-09T04:42:51;4.03;;;2.30;;
2031;SDS011;27625;50.422;7.944;2022-09-09T04:45:18;8.00;;;2.63;;
2031;SDS011;27625;50.422;7.944;2022-09-09T04:47:45;7.27;;;2.23;;
2031;SDS011;27625;50.422;7.944;2022-09-09T04:50:12;5.23;;;2.23;;
2031;SDS011;27625;50.422;7.944;2022-09-09T04:52:38;3.70;;;1.93;;
2031;SDS011;27625;50.422;7.944;2022-09-09T04:55:06;4.57;;;2.00;;
2031;SDS011;27625;50.422;7.944;2022-09-09T04:57:34;5.00;;;1.80;;
2031;SDS011;27625;50.422;7.944;2022-09-09T05:00:01;4.90;;;2.03;;
2031;SDS011;27625;50.422;7.944;2022-09-09T05:02:28;4.70;;;2.27;;
2031;SDS011;27625;50.422;7.944;2022-09-09T05:04:56;5.87;;;2.13;;
2031;SDS011;27625;50.422;7.944;2022-09-09T05:07:23;7.07;;;2.40;;
2031;SDS011;27625;50.422;7.944;2022-09-09T05:09:51;4.97;;;2.20;;
2031;SDS011;27625;50.422;7.944;2022-09-09T05:12:17;4.80;;;2.03;;
2031;SDS011;27625;50.422;7.944;2022-09-09T05:14:44;4.43;;;2.20;;
2031;SDS011;27625;50.422;7.944;2022-09-09T05:17:10;5.93;;;2.23;;
2031;SDS011;27625;50.422;7.944;2022-09-09T05:19:38;8.77;;;2.43;;
2031;SDS011;27625;50.422;7.944;2022-09-09T05:22:06;5.57;;;2.40;;
2031;SDS011;27625;50.422;7.944;2022-09-09T05:24:32;3.73;;;2.10;;
2031;SDS011;27625;50.422;7.944;2022-09-09T05:26:59;3.60;;;2.00;;
2031;SDS011;27625;50.422;7.944;2022-09-09T05:29:30;5.10;;;2.70;;
2031;SDS011;27625;50.422;7.944;2022-09-09T05:32:03;5.10;;;2.30;;
2031;SDS011;27625;50.422;7.944;2022-09-09T05:34:30;4.60;;;2.23;;
2031;SDS011;27625;50.422;7.944;2022-09-09T05:36:56;3.73;;;2.30;;
2031;SDS011;27625;50.422;7.944;2022-09-09T05:39:24;4.27;;;1.87;;
2031;SDS011;27625;50.422;7.944;2022-09-09T05:41:51;7.97;;;2.50;;
2031;SDS011;27625;50.422;7.944;2022-09-09T05:44:17;6.00;;;2.00;;
2031;SDS011;27625;50.422;7.944;2022-09-09T05:46:44;10.10;;;3.03;;
2031;SDS011;27625;50.422;7.944;2022-09-09T05:49:11;4.90;;;2.00;;
2031;SDS011;27625;50.422;7.944;2022-09-09T05:51:37;4.93;;;2.53;;
2031;SDS011;27625;50.422;7.944;2022-09-09T05:54:03;6.80;;;2.53;;
2031;SDS011;27625;50.422;7.944;2022-09-09T05:56:31;4.90;;;2.30;;
2031;SDS011;27625;50.422;7.944;2022-09-09T05:58:58;4.40;;;2.10;;
2031;SDS011;27625;50.422;7.944;2022-09-09T06:01:25;5.43;;;2.30;;
2031;SDS011;27625;50.422;7.944;2022-09-09T06:03:52;7.00;;;2.43;;
2031;SDS011;27625;50.422;7.944;2022-09-09T06:06:20;4.63;;;2.57;;
2031;SDS011;27625;50.422;7.944;2022-09-09T06:08:47;4.60;;;2.53;;
2031;SDS011;27625;50.422;7.944;2022-09-09T06:11:16;4.77;;;2.50;;
2031;SDS011;27625;50.422;7.944;2022-09-09T06:13:45;4.00;;;2.23;;
2031;SDS011;27625;50.422;7.944;2022-09-09T06:16:13;5.03;;;2.30;;
2031;SDS011;27625;50.422;7.944;2022-09-09T06:18:42;4.93;;;2.60;;
2031;SDS011;27625;50.422;7.944;2022-09-09T06:21:09;4.57;;;2.27;;
2031;SDS011;27625;50.422;7.944;2022-09-09T06:23:39;3.57;;;2.07;;
2031;SDS011;27625;50.422;7.944;2022-09-09T06:26:09;9.47;;;2.60;;
2031;SDS011;27625;50.422;7.944;2022-09-09T06:28:37;9.10;;;2.83;;
2031;SDS011;27625;50.422;7.944;2022-09-09T06:31:05;5.20;;;3.00;;
2031;SDS011;27625;50.422;7.944;2022-09-09T06:33:33;6.20;;;2.43;;
2031;SDS011;27625;50.422;7.944;2022-09-09T06:36:01;4.97;;;2.70;;
2031;SDS011;27625;50.422;7.944;2022-09-09T06:38:28;6.33;;;3.00;;
2031;SDS011;27625;50.422;7.944;2022-09-09T06:40:55;3.93;;;1.90;;
2031;SDS011;27625;50.422;7.944;2022-09-09T06:43:23;3.70;;;1.87;;
2031;SDS011;27625;50.422;7.944;2022-09-09T06:45:54;5.03;;;2.40;;
2031;SDS011;27625;50.422;7.944;2022-09-09T06:48:22;5.43;;;2.57;;
2031;SDS011;27625;50.422;7.944;2022-09-09T06:50:51;4.83;;;2.27;;
2031;SDS011;27625;50.422;7.944;2022-09-09T06:53:19;4.40;;;2.13;;
2031;SDS011;27625;50.422;7.944;2022-09-09T06:55:45;7.37;;;2.83;;
2031;SDS011;27625;50.422;7.944;2022-09-09T06:58:12;7.00;;;2.03;;
2031;SDS011;27625;50.422;7.944;2022-09-09T07:00:39;7.37;;;2.30;;
2031;SDS011;27625;50.422;7.944;2022-09-09T07:03:05;4.20;;;2.20;;
2031;SDS011;27625;50.422;7.944;2022-09-09T07:05:34;8.90;;;2.20;;
2031;SDS011;27625;50.422;7.944;2022-09-09T07:08:01;5.23;;;2.27;;
2031;SDS011;27625;50.422;7.944;2022-09-09T07:10:28;7.67;;;2.60;;
2031;SDS011;27625;50.422;7.944;2022-09-09T07:12:54;8.83;;;2.33;;
2031;SDS011;27625;50.422;7.944;2022-09-09T07:15:21;6.87;;;2.37;;
2031;SDS011;27625;50.422;7.944;2022-09-09T07:17:48;6.20;;;2.17;;
2031;SDS011;27625;50.422;7.944;2022-09-09T07:20:15;6.70;;;2.67;;
2031;SDS011;27625;50.422;7.944;2022-09-09T07:22:42;7.03;;;2.20;;
2031;SDS011;27625;50.422;7.944;2022-09-09T07:25:09;3.97;;;1.97;;
2031;SDS011;27625;50.422;7.944;2022-09-09T07:27:36;5.77;;;2.10;;
2031;SDS011;27625;50.422;7.944;2022-09-09T07:30:02;5.20;;;2.17;;
2031;SDS011;27625;50.422;7.944;2022-09-09T07:32:30;5.47;;;1.90;;
2031;SDS011;27625;50.422;7.944;2022-09-09T07:34:56;6.43;;;2.67;;
2031;SDS011;27625;50.422;7.944;2022-09-09T07:37:23;5.37;;;2.27;;
2031;SDS011;27625;50.422;7.944;2022-09-09T07:39:51;4.77;;;2.00;;
2031;SDS011;27625;50.422;7.944;2022-09-09T07:42:18;5.43;;;1.83;;
2031;SDS011;27625;50.422;7.944;2022-09-09T07:44:44;6.30;;;2.40;;
2031;SDS011;27625;50.422;7.944;2022-09-09T07:47:11;5.70;;;2.20;;
2031;SDS011;27625;50.422;7.944;2022-09-09T07:49:37;8.50;;;2.17;;
2031;SDS011;27625;50.422;7.944;2022-09-09T07:52:04;5.90;;;2.20;;
2031;SDS011;27625;50.422;7.944;2022-09-09T07:54:30;6.07;;;2.07;;
2031;SDS011;27625;50.422;7.944;2022-09-09T07:56:59;5.50;;;2.03;;
2031;SDS011;27625;50.422;7.944;2022-09-09T07:59:26;3.30;;;1.53;;
2031;SDS011;27625;50.422;7.944;2022-09-09T08:01:54;4.77;;;1.90;;
2031;SDS011;27625;50.422;7.944;2022-09-09T08:04:21;8.33;;;2.00;;
2031;SDS011;27625;50.422;7.944;2022-09-09T08:06:49;6.43;;;1.80;;
2031;SDS011;27625;50.422;7.944;2022-09-09T08:09:18;5.27;;;2.00;;
2031;SDS011;27625;50.422;7.944;2022-09-09T08:11:45;8.07;;;2.00;;
2031;SDS011;27625;50.422;7.944;2022-09-09T08:14:13;5.43;;;1.93;;
2031;SDS011;27625;50.422;7.944;2022-09-09T08:16:43;6.30;;;2.30;;
2031;SDS011;27625;50.422;7.944;2022-09-09T08:19:10;7.00;;;2.23;;
2031;SDS011;27625;50.422;7.944;2022-09-09T08:21:38;5.80;;;1.80;;
2031;SDS011;27625;50.422;7.944;2022-09-09T08:24:06;5.27;;;1.67;;
2031;SDS011;27625;50.422;7.944;2022-09-09T08:26:34;9.10;;;2.30;;
2031;SDS011;27625;50.422;7.944;2022-09-09T08:29:03;4.90;;;1.70;;
2031;SDS011;27625;50.422;7.944;2022-09-09T08:31:33;5.37;;;1.87;;
2031;SDS011;27625;50.422;7.944;2022-09-09T08:34:02;4.33;;;1.40;;
2031;SDS011;27625;50.422;7.944;2022-09-09T08:36:30;4.30;;;1.50;;
2031;SDS011;27625;50.422;7.944;2022-09-09T08:38:58;6.83;;;1.90;;
2031;SDS011;27625;50.422;7.944;2022-09-09T08:41:35;4.43;;;1.33;;
2031;SDS011;27625;50.422;7.944;2022-09-09T08:44:06;6.50;;;2.07;;
2031;SDS011;27625;50.422;7.944;2022-09-09T08:46:38;6.97;;;1.50;;
2031;SDS011;27625;50.422;7.944;2022-09-09T08:49:14;4.30;;;1.67;;
2031;SDS011;27625;50.422;7.944;2022-09-09T08:51:50;6.90;;;2.13;;
2031;SDS011;27625;50.422;7.944;2022-09-09T08:54:17;5.60;;;2.00;;
2031;SDS011;27625;50.422;7.944;2022-09-09T08:56:43;5.97;;;1.73;;
2031;SDS011;27625;50.422;7.944;2022-09-09T08:59:11;6.00;;;1.90;;
2031;SDS011;27625;50.422;7.944;2022-09-09T09:01:43;6.53;;;1.60;;
2031;SDS011;27625;50.422;7.944;2022-09-09T09:04:21;4.97;;;1.60;;
2031;SDS011;27625;50.422;7.944;2022-09-09T09:07:00;5.60;;;1.97;;
2031;SDS011;27625;50.422;7.944;2022-09-09T09:09:35;6.43;;;1.70;;
2031;SDS011;27625;50.422;7.944;2022-09-09T09:12:10;5.10;;;1.40;;
2031;SDS011;27625;50.422;7.944;2022-09-09T09:14:41;8.60;;;1.67;;
2031;SDS011;27625;50.422;7.944;2022-09-09T09:17:12;5.17;;;1.70;;
2031;SDS011;27625;50.422;7.944;2022-09-09T09:19:41;4.50;;;1.60;;
2031;SDS011;27625;50.422;7.944;2022-09-09T09:22:10;6.23;;;1.70;;
2031;SDS011;27625;50.422;7.944;2022-09-09T09:24:42;5.13;;;1.77;;
2031;SDS011;27625;50.422;7.944;2022-09-09T09:27:15;5.53;;;1.57;;
2031;SDS011;27625;50.422;7.944;2022-09-09T09:29:45;6.17;;;1.53;;
2031;SDS011;27625;50.422;7.944;2022-09-09T09:32:16;5.93;;;1.60;;
2031;SDS011;27625;50.422;7.944;2022-09-09T09:34:48;4.80;;;1.60;;
2031;SDS011;27625;50.422;7.944;2022-09-09T09:37:16;4.40;;;1.60;;
2031;SDS011;27625;50.422;7.944;2022-09-09T09:39:46;6.37;;;1.90;;
2031;SDS011;27625;50.422;7.944;2022-09-09T09:42:14;5.83;;;1.50;;
2031;SDS011;27625;50.422;7.944;2022-09-09T09:44:43;6.13;;;1.80;;
2031;SDS011;27625;50.422;7.944;2022-09-09T09:47:10;6.60;;;1.70;;
2031;SDS011;27625;50.422;7.944;2022-09-09T09:49:39;4.47;;;1.77;;
2031;SDS011;27625;50.422;7.944;2022-09-09T09:52:19;4.37;;;1.87;;
2031;SDS011;27625;50.422;7.944;2022-09-09T09:54:48;5.83;;;1.67;;
2031;SDS011;27625;50.422;7.944;2022-09-09T09:57:16;6.10;;;1.80;;
2031;SDS011;27625;50.422;7.944;2022-09-09T09:59:43;6.87;;;2.00;;
2031;SDS011;27625;50.422;7.944;2022-09-09T10:02:13;5.30;;;1.50;;
2031;SDS011;27625;50.422;7.944;2022-09-09T10:04:43;5.70;;;1.63;;
2031;SDS011;27625;50.422;7.944;2022-09-09T10:07:10;6.30;;;1.70;;
2031;SDS011;27625;50.422;7.944;2022-09-09T10:09:37;5.10;;;1.50;;
2031;SDS011;27625;50.422;7.944;2022-09-09T10:12:06;4.30;;;1.57;;
2031;SDS011;27625;50.422;7.944;2022-09-09T10:14:37;5.40;;;1.70;;
2031;SDS011;27625;50.422;7.944;2022-09-09T10:17:11;10.30;;;1.77;;
2031;SDS011;27625;50.422;7.944;2022-09-09T10:19:49;5.50;;;1.30;;
2031;SDS011;27625;50.422;7.944;2022-09-09T10:22:24;6.43;;;1.60;;
2031;SDS011;27625;50.422;7.944;2022-09-09T10:24:59;8.93;;;2.10;;
2031;SDS011;27625;50.422;7.944;2022-09-09T10:27:34;4.70;;;1.50;;
2031;SDS011;27625;50.422;7.944;2022-09-09T10:30:09;6.53;;;1.43;;
2031;SDS011;27625;50.422;7.944;2022-09-09T10:32:41;5.03;;;1.50;;
2031;SDS011;27625;50.422;7.944;2022-09-09T10:35:14;5.80;;;1.60;;
2031;SDS011;27625;50.422;7.944;2022-09-09T10:37:54;5.07;;;1.60;;
2031;SDS011;27625;50.422;7.944;2022-09-09T10:40:32;3.90;;;1.40;;
2031;SDS011;27625;50.422;7.944;2022-09-09T10:43:12;3.87;;;1.30;;
2031;SDS011;27625;50.422;7.944;2022-09-09T10:45:47;4.30;;;1.73;;
2031;SDS011;27625;50.422;7.944;2022-09-09T10:48:25;4.63;;;1.47;;
2031;SDS011;27625;50.422;7.944;2022-09-09T10:51:02;4.50;;;1.50;;
2031;SDS011;27625;50.422;7.944;2022-09-09T10:53:44;5.17;;;1.33;;
2031;SDS011;27625;50.422;7.944;2022-09-09T10:56:18;3.77;;;1.47;;
2031;SDS011;27625;50.422;7.944;2022-09-09T10:58:47;7.67;;;2.13;;
2031;SDS011;27625;50.422;7.944;2022-09-09T11:01:16;4.97;;;1.53;;
2031;SDS011;27625;50.422;7.944;2022-09-09T11:03:46;4.70;;;1.30;;
2031;SDS011;27625;50.422;7.944;2022-09-09T11:06:20;4.50;;;1.60;;
2031;SDS011;27625;50.422;7.944;2022-09-09T11:08:48;6.63;;;1.40;;
2031;SDS011;27625;50.422;7.944;2022-09-09T11:11:16;7.10;;;1.40;;
2031;SDS011;27625;50.422;7.944;2022-09-09T11:13:46;4.30;;;1.30;;
2031;SDS011;27625;50.422;7.944;2022-09-09T11:16:19;4.30;;;1.37;;
2031;SDS011;27625;50.422;7.944;2022-09-09T11:18:49;4.60;;;1.50;;
2031;SDS011;27625;50.422;7.944;2022-09-09T11:21:16;4.80;;;1.57;;
2031;SDS011;27625;50.422;7.944;2022-09-09T11:23:49;6.60;;;1.70;;
2031;SDS011;27625;50.422;7.944;2022-09-09T11:26:18;5.07;;;1.37;;
2031;SDS011;27625;50.422;7.944;2022-09-09T11:28:58;4.63;;;1.30;;
2031;SDS011;27625;50.422;7.944;2022-09-09T11:31:38;4.43;;;1.30;;
2031;SDS011;27625;50.422;7.944;2022-09-09T11:34:17;3.60;;;1.30;;
2031;SDS011;27625;50.422;7.944;2022-09-09T11:36:56;4.27;;;1.60;;
2031;SDS011;27625;50.422;7.944;2022-09-09T11:39:50;4.87;;;1.67;;
2031;SDS011;27625;50.422;7.944;2022-09-09T11:42:33;6.27;;;1.40;;
2031;SDS011;27625;50.422;7.944;2022-09-09T11:45:08;8.37;;;1.87;;
2031;SDS011;27625;50.422;7.944;2022-09-09T11:47:51;6.23;;;1.60;;
2031;SDS011;27625;50.422;7.944;2022-09-09T11:50:27;3.70;;;1.33;;
2031;SDS011;27625;50.422;7.944;2022-09-09T11:53:05;5.10;;;1.70;;
2031;SDS011;27625;50.422;7.944;2022-09-09T11:55:42;4.90;;;1.73;;
2031;SDS011;27625;50.422;7.944;2022-09-09T11:58:14;3.93;;;1.47;;
2031;SDS011;27625;50.422;7.944;2022-09-09T12:00:43;6.40;;;1.63;;
2031;SDS011;27625;50.422;7.944;2022-09-09T12:05:59;4.60;;;1.50;;
2031;SDS011;27625;50.422;7.944;2022-09-09T12:08:39;4.50;;;1.50;;
2031;SDS011;27625;50.422;7.944;2022-09-09T12:11:08;7.13;;;1.57;;
2031;SDS011;27625;50.422;7.944;2022-09-09T12:13:39;4.60;;;1.50;;
2031;SDS011;27625;50.422;7.944;2022-09-09T12:19:02;4.30;;;1.67;;
2031;SDS011;27625;50.422;7.944;2022-09-09T12:21:33;5.53;;;1.60;;
2031;SDS011;27625;50.422;7.944;2022-09-09T12:24:05;3.93;;;1.50;;
2031;SDS011;27625;50.422;7.944;2022-09-09T12:26:34;4.10;;;1.70;;
2031;SDS011;27625;50.422;7.944;2022-09-09T12:29:05;4.37;;;1.30;;
2031;SDS011;27625;50.422;7.944;2022-09-09T12:31:39;5.10;;;1.57;;
2031;SDS011;27625;50.422;7.944;2022-09-09T12:34:10;6.63;;;1.63;;
2031;SDS011;27625;50.422;7.944;2022-09-09T12:36:39;3.83;;;1.37;;
2031;SDS011;27625;50.422;7.944;2022-09-09T12:39:14;5.60;;;1.30;;
2031;SDS011;27625;50.422;7.944;2022-09-09T12:41:50;8.50;;;1.80;;
2031;SDS011;27625;50.422;7.944;2022-09-09T12:44:21;5.07;;;1.50;;
2031;SDS011;27625;50.422;7.944;2022-09-09T12:46:48;4.77;;;1.40;;
2031;SDS011;27625;50.422;7.944;2022-09-09T12:49:25;6.70;;;1.60;;
2031;SDS011;27625;50.422;7.944;2022-09-09T12:51:56;6.03;;;1.70;;
2031;SDS011;27625;50.422;7.944;2022-09-09T12:54:24;7.03;;;1.70;;
2031;SDS011;27625;50.422;7.944;2022-09-09T12:56:51;5.40;;;1.40;;
2031;SDS011;27625;50.422;7.944;2022-09-09T12:59:21;5.30;;;1.50;;
2031;SDS011;27625;50.422;7.944;2022-09-09T13:01:55;4.70;;;1.47;;
2031;SDS011;27625;50.422;7.944;2022-09-09T13:04:22;4.50;;;1.60;;
2031;SDS011;27625;50.422;7.944;2022-09-09T13:06:48;6.97;;;1.33;;
2031;SDS011;27625;50.422;7.944;2022-09-09T13:09:17;4.30;;;1.50;;
2031;SDS011;27625;50.422;7.944;2022-09-09T13:11:45;3.70;;;1.53;;
2031;SDS011;27625;50.422;7.944;2022-09-09T13:14:13;4.43;;;1.50;;
2031;SDS011;27625;50.422;7.944;2022-09-09T13:16:53;3.53;;;1.30;;
2031;SDS011;27625;50.422;7.944;2022-09-09T13:19:21;5.57;;;1.67;;
2031;SDS011;27625;50.422;7.944;2022-09-09T13:21:50;4.33;;;1.50;;
2031;SDS011;27625;50.422;7.944;2022-09-09T13:24:24;6.07;;;1.50;;
2031;SDS011;27625;50.422;7.944;2022-09-09T13:26:56;5.60;;;1.60;;
2031;SDS011;27625;50.422;7.944;2022-09-09T13:29:23;3.90;;;1.40;;
2031;SDS011;27625;50.422;7.944;2022-09-09T13:31:50;3.40;;;1.30;;
2031;SDS011;27625;50.422;7.944;2022-09-09T13:34:28;4.73;;;1.50;;
2031;SDS011;27625;50.422;7.944;2022-09-09T13:39:26;7.13;;;1.60;;
2031;SDS011;27625;50.422;7.944;2022-09-09T13:41:53;5.00;;;1.53;;
2031;SDS011;27625;50.422;7.944;2022-09-09T13:44:21;6.83;;;1.40;;
2031;SDS011;27625;50.422;7.944;2022-09-09T13:46:59;4.70;;;1.57;;
2031;SDS011;27625;50.422;7.944;2022-09-09T13:49:27;3.97;;;1.40;;
2031;SDS011;27625;50.422;7.944;2022-09-09T13:52:03;9.43;;;1.70;;
2031;SDS011;27625;50.422;7.944;2022-09-09T13:54:30;4.33;;;1.63;;
2031;SDS011;27625;50.422;7.944;2022-09-09T13:56:56;4.97;;;1.50;;
2031;SDS011;27625;50.422;7.944;2022-09-09T13:59:24;5.13;;;1.60;;
2031;SDS011;27625;50.422;7.944;2022-09-09T14:01:52;4.43;;;1.43;;
2031;SDS011;27625;50.422;7.944;2022-09-09T14:04:18;3.57;;;1.53;;
2031;SDS011;27625;50.422;7.944;2022-09-09T14:06:46;5.27;;;1.40;;
2031;SDS011;27625;50.422;7.944;2022-09-09T14:09:14;4.30;;;1.60;;
2031;SDS011;27625;50.422;7.944;2022-09-09T14:11:41;5.10;;;1.60;;
2031;SDS011;27625;50.422;7.944;2022-09-09T14:14:08;3.37;;;1.10;;
2031;SDS011;27625;50.422;7.944;2022-09-09T14:16:36;7.70;;;1.40;;
2031;SDS011;27625;50.422;7.944;2022-09-09T14:19:02;9.63;;;1.30;;
2031;SDS011;27625;50.422;7.944;2022-09-09T14:21:29;6.13;;;1.40;;
2031;SDS011;27625;50.422;7.944;2022-09-09T14:23:56;2.60;;;0.80;;
2031;SDS011;27625;50.422;7.944;2022-09-09T14:26:23;3.60;;;1.10;;
2031;SDS011;27625;50.422;7.944;2022-09-09T14:28:51;3.20;;;1.03;;
2031;SDS011;27625;50.422;7.944;2022-09-09T14:31:17;3.40;;;1.20;;
2031;SDS011;27625;50.422;7.944;2022-09-09T14:33:45;4.10;;;1.20;;
2031;SDS011;27625;50.422;7.944;2022-09-09T14:36:12;4.93;;;1.23;;
2031;SDS011;27625;50.422;7.944;2022-09-09T14:38:40;2.90;;;1.10;;
2031;SDS011;27625;50.422;7.944;2022-09-09T14:41:07;3.63;;;1.10;;
2031;SDS011;27625;50.422;7.944;2022-09-09T14:43:37;4.30;;;1.40;;
2031;SDS011;27625;50.422;7.944;2022-09-09T14:46:06;4.00;;;1.43;;
2031;SDS011;27625;50.422;7.944;2022-09-09T14:48:33;3.93;;;1.20;;
2031;SDS011;27625;50.422;7.944;2022-09-09T14:51:06;2.90;;;1.27;;
2031;SDS011;27625;50.422;7.944;2022-09-09T14:53:33;4.70;;;1.47;;
2031;SDS011;27625;50.422;7.944;2022-09-09T14:56:03;3.50;;;1.43;;
2031;SDS011;27625;50.422;7.944;2022-09-09T14:58:31;6.50;;;1.20;;
2031;SDS011;27625;50.422;7.944;2022-09-09T15:01:01;5.17;;;1.67;;
2031;SDS011;27625;50.422;7.944;2022-09-09T15:03:29;3.67;;;1.33;;
2031;SDS011;27625;50.422;7.944;2022-09-09T15:05:55;3.93;;;1.47;;
2031;SDS011;27625;50.422;7.944;2022-09-09T15:08:24;4.97;;;1.43;;
2031;SDS011;27625;50.422;7.944;2022-09-09T15:10:57;3.53;;;1.40;;
2031;SDS011;27625;50.422;7.944;2022-09-09T15:13:25;6.53;;;1.63;;
2031;SDS011;27625;50.422;7.944;2022-09-09T15:15:51;5.33;;;1.40;;
2031;SDS011;27625;50.422;7.944;2022-09-09T15:18:19;3.53;;;1.40;;
2031;SDS011;27625;50.422;7.944;2022-09-09T15:20:46;5.23;;;1.73;;
2031;SDS011;27625;50.422;7.944;2022-09-09T15:23:12;3.23;;;1.30;;
2031;SDS011;27625;50.422;7.944;2022-09-09T15:25:50;6.80;;;1.30;;
2031;SDS011;27625;50.422;7.944;2022-09-09T15:28:18;4.50;;;1.40;;